Time;durP1;ratioP1;P1;durP2;ratioP2;P2;SDS_P1;SDS_P2;PMS_P1;PMS_P2;Temp;Humidity;BMP_temperature;BMP_pressure;BME280_temperature;BME280_humidity;BME280_pressure;Samples;Min_cycle;Max_cycle;Signal;HPM_P1;HPM_P2
2023/07/28 00:00:46;;;;;;;;;;;19.50;90.80;;;;;;4985929;28;20839;-76
2023/07/28 00:03:13;;;;;;;;;;;19.50;90.80;;;;;;5006124;28;19966;-76
2023/07/28 00:05:40;;;;;;;;;;;19.50;90.80;;;;;;5004277;28;20016;-76
2023/07/28 00:08:06;;;;;;;;;;;19.50;90.80;;;;;;5006347;28;20295;-76
2023/07/28 00:10:33;;;;;;;;;;;19.50;90.80;;;;;;5003939;28;19933;-76
2023/07/28 00:12:59;;;;;;;;;;;19.50;90.90;;;;;;5004342;28;20640;-76
2023/07/28 00:15:26;;;;;;;;;;;19.50;90.90;;;;;;5000098;28;19942;-77
2023/07/28 00:17:54;;;;;;;;;;;19.50;90.90;;;;;;4984826;28;19937;-76
2023/07/28 00:20:20;;;;;;;;;;;19.50;90.90;;;;;;4986030;28;19940;-76
2023/07/28 00:22:47;;;;;;;;;;;19.50;91.00;;;;;;4987132;28;19941;-76
2023/07/28 00:25:13;;;;;;;;;;;19.50;91.00;;;;;;4987322;28;19937;-77
2023/07/28 00:27:40;;;;;;;;;;;19.40;91.00;;;;;;4988451;28;20739;-76
2023/07/28 00:30:07;;;;;;;;;;;19.40;90.90;;;;;;4995942;28;19941;-76
2023/07/28 00:32:34;;;;;;;;;;;19.40;91.30;;;;;;4994725;28;19933;-76
2023/07/28 00:35:01;;;;;;;;;;;19.40;91.00;;;;;;4989903;28;20652;-76
2023/07/28 00:37:28;;;;;;;;;;;19.40;91.00;;;;;;4989251;28;19929;-75
2023/07/28 00:39:54;;;;;;;;;;;19.40;91.00;;;;;;4990015;28;19944;-76
2023/07/28 00:42:21;;;;;;;;;;;19.40;91.00;;;;;;4989655;28;19934;-76
2023/07/28 00:44:48;;;;;;;;;;;19.40;91.00;;;;;;4989607;28;20505;-76
2023/07/28 00:47:14;;;;;;;;;;;19.40;91.00;;;;;;5003921;28;20410;-76
2023/07/28 00:49:41;;;;;;;;;;;19.40;91.00;;;;;;5007408;28;20569;-76
2023/07/28 00:52:09;;;;;;;;;;;19.40;91.00;;;;;;5008025;28;20267;-76
2023/07/28 00:54:36;;;;;;;;;;;19.40;91.00;;;;;;5001644;28;20411;-76
2023/07/28 00:57:04;;;;;;;;;;;19.40;91.00;;;;;;5005772;28;19933;-76
2023/07/28 00:59:31;;;;;;;;;;;19.40;91.00;;;;;;5003191;28;19933;-76
2023/07/28 01:01:58;;;;;;;;;;;19.40;91.00;;;;;;5005477;28;20415;-76
2023/07/28 01:04:24;;;;;;;;;;;19.40;91.00;;;;;;5003061;28;20461;-76
2023/07/28 01:06:54;;;;;;;;;;;19.30;91.00;;;;;;5002626;28;19933;-76
2023/07/28 01:09:25;;;;;;;;;;;19.30;91.00;;;;;;5002722;28;19942;-76
2023/07/28 01:11:54;;;;;;;;;;;19.30;91.00;;;;;;5002743;28;19937;-75
2023/07/28 01:14:21;;;;;;;;;;;19.40;91.10;;;;;;4999850;28;19940;-75
2023/07/28 01:16:48;;;;;;;;;;;19.30;91.00;;;;;;5004513;28;20437;-75
2023/07/28 01:19:16;;;;;;;;;;;19.30;91.00;;;;;;4997969;28;19933;-76
2023/07/28 01:21:43;;;;;;;;;;;19.30;91.10;;;;;;5001092;28;19932;-76
2023/07/28 01:24:16;;;;;;;;;;;19.30;91.00;;;;;;4999190;28;19977;-75
2023/07/28 01:26:43;;;;;;;;;;;19.30;91.10;;;;;;5003220;28;19960;-79
2023/07/28 01:29:10;;;;;;;;;;;19.30;91.10;;;;;;5005558;28;19933;-75
2023/07/28 01:31:36;;;;;;;;;;;19.30;91.10;;;;;;4990713;28;19932;-75
2023/07/28 01:34:03;;;;;;;;;;;19.30;91.10;;;;;;4986035;28;19937;-75
2023/07/28 01:36:29;;;;;;;;;;;19.30;91.10;;;;;;4985174;28;19929;-75
2023/07/28 01:38:56;;;;;;;;;;;19.30;91.10;;;;;;4979964;28;19936;-75
2023/07/28 01:41:22;;;;;;;;;;;19.20;91.10;;;;;;4985047;28;19930;-76
2023/07/28 01:43:50;;;;;;;;;;;19.30;91.10;;;;;;4983570;28;19930;-75
2023/07/28 01:46:17;;;;;;;;;;;19.20;91.10;;;;;;4984663;28;20037;-76
2023/07/28 01:48:43;;;;;;;;;;;19.20;91.10;;;;;;4982429;28;20311;-76
2023/07/28 01:51:10;;;;;;;;;;;19.20;91.10;;;;;;4985421;28;20320;-74
2023/07/28 01:53:36;;;;;;;;;;;19.20;91.10;;;;;;4978496;28;19934;-75
2023/07/28 01:56:03;;;;;;;;;;;19.20;91.10;;;;;;4983071;28;19933;-76
2023/07/28 01:58:30;;;;;;;;;;;19.20;91.10;;;;;;4986064;28;21182;-75
2023/07/28 02:00:58;;;;;;;;;;;19.20;91.20;;;;;;4980417;28;19929;-75
2023/07/28 02:03:24;;;;;;;;;;;19.20;91.20;;;;;;4939799;28;1757355;-76
2023/07/28 02:05:52;;;;;;;;;;;19.20;91.20;;;;;;4983715;28;19930;-76
2023/07/28 02:08:19;;;;;;;;;;;19.20;91.20;;;;;;4990154;28;19933;-75
2023/07/28 02:10:45;;;;;;;;;;;19.20;91.20;;;;;;4987781;28;19944;-75
2023/07/28 02:13:12;;;;;;;;;;;19.20;91.20;;;;;;4983292;28;19933;-75
2023/07/28 02:15:38;;;;;;;;;;;19.20;91.60;;;;;;4984593;28;19941;-76
2023/07/28 02:18:06;;;;;;;;;;;19.20;91.20;;;;;;4989900;28;19983;-75
2023/07/28 02:20:34;;;;;;;;;;;19.20;91.30;;;;;;4984124;28;19929;-74
2023/07/28 02:23:00;;;;;;;;;;;19.10;91.20;;;;;;4985634;28;20482;-75
2023/07/28 02:25:27;;;;;;;;;;;19.10;91.30;;;;;;4983149;28;19934;-76
2023/07/28 02:27:53;;;;;;;;;;;19.20;91.30;;;;;;4983961;28;19943;-76
2023/07/28 02:30:20;;;;;;;;;;;19.10;91.30;;;;;;4983524;28;19929;-75
2023/07/28 02:32:46;;;;;;;;;;;19.10;91.30;;;;;;4983736;28;19938;-75
2023/07/28 02:35:14;;;;;;;;;;;19.10;91.30;;;;;;4984428;28;19930;-75
2023/07/28 02:37:41;;;;;;;;;;;19.10;91.30;;;;;;4985857;28;19934;-75
2023/07/28 02:40:09;;;;;;;;;;;19.10;91.30;;;;;;4983913;28;19930;-76
2023/07/28 02:42:35;;;;;;;;;;;19.10;91.30;;;;;;4983114;28;19930;-75
2023/07/28 02:45:02;;;;;;;;;;;19.10;91.30;;;;;;4983883;28;19933;-75
2023/07/28 02:47:28;;;;;;;;;;;19.10;91.30;;;;;;4980602;28;19933;-75
2023/07/28 02:49:55;;;;;;;;;;;19.10;91.30;;;;;;4984749;28;19934;-75
2023/07/28 02:52:23;;;;;;;;;;;19.10;91.30;;;;;;4981311;28;19984;-76
2023/07/28 02:54:50;;;;;;;;;;;19.10;91.30;;;;;;4984964;28;19934;-76
2023/07/28 02:57:16;;;;;;;;;;;19.10;91.30;;;;;;4983950;28;19952;-76
2023/07/28 02:59:43;;;;;;;;;;;19.10;91.30;;;;;;4981370;28;19941;-75
2023/07/28 03:02:09;;;;;;;;;;;19.10;91.40;;;;;;4982427;28;19933;-76
2023/07/28 03:04:36;;;;;;;;;;;19.10;91.40;;;;;;4982836;28;19937;-75
2023/07/28 03:07:02;;;;;;;;;;;19.00;91.40;;;;;;4984538;28;19941;-75
2023/07/28 03:09:30;;;;;;;;;;;19.00;91.40;;;;;;4986736;28;19929;-76
2023/07/28 03:11:57;;;;;;;;;;;19.00;91.40;;;;;;4984798;28;19941;-76
2023/07/28 03:14:23;;;;;;;;;;;19.00;91.40;;;;;;4983379;28;19940;-75
2023/07/28 03:16:50;;;;;;;;;;;19.00;91.40;;;;;;4983565;28;19930;-75
2023/07/28 03:19:17;;;;;;;;;;;19.00;91.40;;;;;;4984531;28;19933;-76
2023/07/28 03:21:44;;;;;;;;;;;19.00;91.40;;;;;;4986017;28;20036;-76
2023/07/28 03:24:10;;;;;;;;;;;19.00;91.40;;;;;;4983838;28;20690;-76
2023/07/28 03:26:38;;;;;;;;;;;19.00;91.40;;;;;;4985021;28;19930;-77
2023/07/28 03:29:04;;;;;;;;;;;19.00;91.40;;;;;;4984170;28;19930;-76
2023/07/28 03:31:32;;;;;;;;;;;19.00;91.40;;;;;;4978973;28;19937;-76
2023/07/28 03:33:59;;;;;;;;;;;19.00;91.40;;;;;;4983802;28;20159;-76
2023/07/28 03:36:25;;;;;;;;;;;19.00;91.40;;;;;;4981507;28;19930;-75
2023/07/28 03:38:52;;;;;;;;;;;18.90;91.40;;;;;;4983323;28;19933;-76
2023/07/28 03:41:18;;;;;;;;;;;19.00;91.50;;;;;;4984181;28;19930;-75
2023/07/28 03:43:46;;;;;;;;;;;19.00;91.50;;;;;;4984790;28;19981;-75
2023/07/28 03:46:13;;;;;;;;;;;19.00;91.50;;;;;;4983351;28;19936;-76
2023/07/28 03:48:39;;;;;;;;;;;19.00;91.60;;;;;;4978230;28;19933;-76
2023/07/28 03:51:06;;;;;;;;;;;19.00;91.60;;;;;;4978449;28;19937;-76
2023/07/28 03:53:34;;;;;;;;;;;19.00;91.70;;;;;;4978268;28;19930;-75
2023/07/28 03:56:01;;;;;;;;;;;18.90;91.70;;;;;;4984478;28;20399;-75
2023/07/28 03:58:27;;;;;;;;;;;18.90;91.70;;;;;;4981843;28;19930;-76
2023/07/28 04:00:54;;;;;;;;;;;18.90;91.80;;;;;;4980898;28;19933;-75
2023/07/28 04:03:21;;;;;;;;;;;18.90;91.80;;;;;;4985261;28;19926;-76
2023/07/28 04:05:48;;;;;;;;;;;18.90;91.80;;;;;;4981249;28;19930;-76
2023/07/28 04:08:14;;;;;;;;;;;18.90;91.80;;;;;;4980021;28;19934;-75
2023/07/28 04:10:41;;;;;;;;;;;18.90;91.80;;;;;;4982673;28;19930;-76
2023/07/28 04:13:07;;;;;;;;;;;18.90;91.80;;;;;;4977050;28;19930;-75
2023/07/28 04:15:34;;;;;;;;;;;18.90;91.80;;;;;;4984588;28;19930;-75
2023/07/28 04:18:02;;;;;;;;;;;18.90;91.90;;;;;;4983806;28;19930;-76
2023/07/28 04:20:28;;;;;;;;;;;18.90;91.90;;;;;;4981212;28;19930;-75
2023/07/28 04:22:55;;;;;;;;;;;18.90;91.90;;;;;;4981308;28;20642;-76
2023/07/28 04:25:21;;;;;;;;;;;18.90;91.90;;;;;;4983487;28;20546;-75
2023/07/28 04:27:48;;;;;;;;;;;18.90;92.00;;;;;;4980315;28;19930;-75
2023/07/28 04:30:14;;;;;;;;;;;18.90;92.00;;;;;;4982471;28;19934;-76
2023/07/28 04:32:41;;;;;;;;;;;18.90;92.10;;;;;;4983605;28;19930;-76
2023/07/28 04:35:09;;;;;;;;;;;18.90;92.10;;;;;;4983553;28;19933;-76
2023/07/28 04:37:35;;;;;;;;;;;18.80;92.10;;;;;;4983983;28;19933;-76
2023/07/28 04:40:02;;;;;;;;;;;18.80;92.20;;;;;;4976685;28;19936;-76
2023/07/28 04:42:28;;;;;;;;;;;18.80;92.30;;;;;;4984745;28;19929;-76
2023/07/28 04:44:55;;;;;;;;;;;18.80;92.30;;;;;;4980573;28;19929;-76
2023/07/28 04:47:21;;;;;;;;;;;18.80;92.30;;;;;;4978992;28;19985;-76
2023/07/28 04:49:48;;;;;;;;;;;18.80;92.30;;;;;;4986159;28;19930;-75
2023/07/28 04:52:16;;;;;;;;;;;18.80;92.30;;;;;;4983097;28;19937;-75
2023/07/28 04:54:42;;;;;;;;;;;18.80;92.40;;;;;;4984865;28;19934;-76
2023/07/28 04:57:09;;;;;;;;;;;18.80;92.40;;;;;;4985830;28;19933;-75
2023/07/28 04:59:35;;;;;;;;;;;18.80;92.50;;;;;;4985486;28;19937;-76
2023/07/28 05:02:02;;;;;;;;;;;18.80;92.50;;;;;;4984274;28;19984;-75
2023/07/28 05:04:28;;;;;;;;;;;18.80;92.60;;;;;;4987634;28;19930;-74
2023/07/28 05:06:55;;;;;;;;;;;18.80;92.60;;;;;;4986444;28;20285;-76
2023/07/28 05:09:23;;;;;;;;;;;18.80;92.60;;;;;;4984808;28;19933;-75
2023/07/28 05:11:49;;;;;;;;;;;18.80;92.70;;;;;;4985927;28;19937;-75
2023/07/28 05:14:16;;;;;;;;;;;18.80;92.70;;;;;;4985352;28;19940;-76
2023/07/28 05:16:42;;;;;;;;;;;18.80;92.70;;;;;;4983360;28;19930;-76
2023/07/28 05:19:09;;;;;;;;;;;18.80;92.70;;;;;;4983699;28;19934;-76
2023/07/28 05:21:35;;;;;;;;;;;18.80;92.80;;;;;;4986443;28;19933;-76
2023/07/28 05:24:02;;;;;;;;;;;18.80;92.90;;;;;;4984571;28;19991;-75
2023/07/28 05:26:30;;;;;;;;;;;18.80;92.90;;;;;;4983845;28;19933;-76
2023/07/28 05:28:56;;;;;;;;;;;18.80;92.90;;;;;;4983380;28;19925;-75
2023/07/28 05:31:23;;;;;;;;;;;18.80;92.90;;;;;;4982332;28;19929;-75
2023/07/28 05:33:50;;;;;;;;;;;18.70;92.90;;;;;;4983034;28;19940;-75
2023/07/28 05:36:16;;;;;;;;;;;18.70;93.00;;;;;;4978275;28;20517;-76
2023/07/28 05:38:43;;;;;;;;;;;18.70;93.00;;;;;;4985970;28;19939;-75
2023/07/28 05:41:09;;;;;;;;;;;18.70;93.10;;;;;;4986593;28;19930;-72
2023/07/28 05:43:37;;;;;;;;;;;18.80;94.60;;;;;;4979348;28;19936;-73
2023/07/28 05:46:04;;;;;;;;;;;18.70;95.40;;;;;;4983878;28;20416;-74
2023/07/28 05:48:30;;;;;;;;;;;18.70;95.30;;;;;;4985348;28;20683;-74
2023/07/28 05:50:57;;;;;;;;;;;18.70;95.20;;;;;;4976210;28;19933;-74
2023/07/28 05:53:23;;;;;;;;;;;18.70;95.00;;;;;;4982025;28;20019;-74
2023/07/28 05:55:50;;;;;;;;;;;18.60;95.00;;;;;;4987496;28;19933;-75
2023/07/28 05:58:17;;;;;;;;;;;18.60;95.00;;;;;;4985110;28;19933;-74
2023/07/28 06:00:44;;;;;;;;;;;18.60;94.90;;;;;;4984008;28;19933;-74
2023/07/28 06:03:12;;;;;;;;;;;18.60;94.80;;;;;;4985646;28;19933;-74
2023/07/28 06:05:39;;;;;;;;;;;18.60;94.80;;;;;;4985518;28;20016;-74
2023/07/28 06:08:05;;;;;;;;;;;18.70;94.80;;;;;;4987491;28;19930;-73
2023/07/28 06:10:32;;;;;;;;;;;18.60;94.80;;;;;;4984993;28;19932;-75
2023/07/28 06:12:59;;;;;;;;;;;18.60;94.80;;;;;;4985517;28;19930;-75
2023/07/28 06:15:25;;;;;;;;;;;18.60;94.80;;;;;;4982826;28;19933;-73
2023/07/28 06:17:53;;;;;;;;;;;18.60;94.80;;;;;;4980153;28;20356;-74
2023/07/28 06:20:20;;;;;;;;;;;18.60;94.80;;;;;;4979154;28;19934;-75
2023/07/28 06:22:46;;;;;;;;;;;18.60;94.80;;;;;;4982724;28;20411;-75
2023/07/28 06:25:13;;;;;;;;;;;18.60;94.90;;;;;;4979393;28;19933;-74
2023/07/28 06:27:39;;;;;;;;;;;18.60;94.90;;;;;;4985537;28;19940;-74
2023/07/28 06:30:06;;;;;;;;;;;18.60;95.00;;;;;;4981962;28;19940;-73
2023/07/28 06:32:33;;;;;;;;;;;18.60;95.00;;;;;;4985264;28;19929;-74
2023/07/28 06:35:01;;;;;;;;;;;18.60;95.00;;;;;;4982493;28;19926;-74
2023/07/28 06:37:27;;;;;;;;;;;18.60;95.00;;;;;;4986752;28;19964;-74
2023/07/28 06:39:55;;;;;;;;;;;18.60;95.00;;;;;;4985789;28;19936;-75
2023/07/28 06:42:23;;;;;;;;;;;18.60;95.00;;;;;;4984288;28;20655;-74
2023/07/28 06:44:50;;;;;;;;;;;18.60;95.00;;;;;;4986291;28;19995;-74
2023/07/28 06:47:16;;;;;;;;;;;18.60;94.90;;;;;;4979155;28;19941;-74
2023/07/28 06:49:43;;;;;;;;;;;18.60;95.00;;;;;;4978794;28;19988;-74
2023/07/28 06:52:11;;;;;;;;;;;18.60;95.10;;;;;;4981777;28;19930;-74
2023/07/28 06:54:38;;;;;;;;;;;18.60;95.10;;;;;;4983256;28;19930;-74
2023/07/28 06:57:06;;;;;;;;;;;18.60;95.00;;;;;;4985367;28;20398;-74
2023/07/28 06:59:32;;;;;;;;;;;18.60;95.00;;;;;;4982056;28;19934;-73
2023/07/28 07:01:59;;;;;;;;;;;18.60;95.10;;;;;;4983316;28;20012;-72
2023/07/28 07:04:26;;;;;;;;;;;18.60;95.20;;;;;;4981961;28;19940;-73
2023/07/28 07:06:52;;;;;;;;;;;18.60;95.20;;;;;;4986186;28;19930;-73
2023/07/28 07:09:20;;;;;;;;;;;18.60;95.30;;;;;;4975407;28;19972;-74
2023/07/28 07:11:47;;;;;;;;;;;18.60;95.30;;;;;;4982230;28;20056;-74
2023/07/28 07:14:14;;;;;;;;;;;18.60;95.30;;;;;;4979548;28;19929;-74
2023/07/28 07:16:40;;;;;;;;;;;18.60;95.30;;;;;;4981305;28;19940;-73
2023/07/28 07:19:08;;;;;;;;;;;18.60;95.30;;;;;;4980133;28;19941;-74
2023/07/28 07:21:35;;;;;;;;;;;18.60;95.30;;;;;;4979793;28;19940;-73
2023/07/28 07:24:03;;;;;;;;;;;18.60;95.40;;;;;;4981272;28;19930;-73
2023/07/28 07:26:31;;;;;;;;;;;18.60;95.40;;;;;;4981252;28;19929;-74
2023/07/28 07:28:58;;;;;;;;;;;18.60;95.50;;;;;;4980767;28;20038;-73
2023/07/28 07:31:25;;;;;;;;;;;18.60;95.40;;;;;;4979975;28;20513;-74
2023/07/28 07:33:51;;;;;;;;;;;18.60;95.40;;;;;;4979967;28;19933;-73
2023/07/28 07:36:19;;;;;;;;;;;18.60;95.40;;;;;;4975523;28;19981;-73
2023/07/28 07:38:46;;;;;;;;;;;18.60;95.40;;;;;;4981657;28;19948;-74
2023/07/28 07:41:15;;;;;;;;;;;18.60;95.40;;;;;;4979132;28;19949;-73
2023/07/28 07:43:43;;;;;;;;;;;18.60;95.40;;;;;;4980721;28;19930;-74
2023/07/28 07:46:10;;;;;;;;;;;18.60;95.30;;;;;;4978931;28;19930;-74
2023/07/28 07:48:37;;;;;;;;;;;18.60;95.40;;;;;;4980237;28;20078;-74
2023/07/28 07:51:04;;;;;;;;;;;18.70;95.50;;;;;;4982258;28;19984;-73
2023/07/28 07:53:30;;;;;;;;;;;18.60;95.50;;;;;;4978619;28;20414;-73
2023/07/28 07:55:57;;;;;;;;;;;18.60;95.50;;;;;;4976025;28;19964;-74
2023/07/28 07:58:24;;;;;;;;;;;18.60;95.50;;;;;;4979672;28;20631;-74
2023/07/28 08:00:52;;;;;;;;;;;18.60;95.50;;;;;;4980963;28;19996;-73
2023/07/28 08:03:19;;;;;;;;;;;18.60;95.60;;;;;;4980871;28;20266;-73
2023/07/28 08:05:45;;;;;;;;;;;18.60;95.60;;;;;;4981404;28;19933;-73
2023/07/28 08:08:15;;;;;;;;;;;18.60;95.70;;;;;;4983111;28;19949;-74
2023/07/28 08:10:41;;;;;;;;;;;18.60;95.70;;;;;;4977622;28;19933;-74
2023/07/28 08:13:08;;;;;;;;;;;18.60;95.80;;;;;;4980371;28;20763;-74
2023/07/28 08:15:35;;;;;;;;;;;18.70;95.90;;;;;;4983287;28;19931;-74
2023/07/28 08:18:03;;;;;;;;;;;18.60;95.90;;;;;;4983618;28;19926;-74
2023/07/28 08:20:30;;;;;;;;;;;18.70;96.10;;;;;;4978694;28;20459;-73
2023/07/28 08:22:57;;;;;;;;;;;18.70;96.20;;;;;;4980392;28;19951;-74
2023/07/28 08:25:23;;;;;;;;;;;18.70;96.40;;;;;;4983699;28;19936;-73
2023/07/28 08:27:50;;;;;;;;;;;18.80;96.40;;;;;;4981307;28;20026;-73
2023/07/28 08:30:16;;;;;;;;;;;18.80;96.50;;;;;;4982410;28;19938;-74
2023/07/28 08:32:43;;;;;;;;;;;18.80;96.50;;;;;;4983671;28;19930;-74
2023/07/28 08:35:11;;;;;;;;;;;18.80;96.50;;;;;;4983755;28;19930;-73
2023/07/28 08:37:38;;;;;;;;;;;18.80;96.60;;;;;;4983904;28;19926;-74
2023/07/28 08:40:06;;;;;;;;;;;18.90;96.70;;;;;;4984472;28;20416;-73
2023/07/28 08:42:37;;;;;;;;;;;18.90;96.70;;;;;;4979101;28;19937;-73
2023/07/28 08:45:04;;;;;;;;;;;18.90;96.70;;;;;;4983667;28;19981;-74
2023/07/28 08:47:31;;;;;;;;;;;18.90;96.70;;;;;;4983978;28;20037;-74
2023/07/28 08:49:58;;;;;;;;;;;19.00;96.60;;;;;;4984587;28;19938;-73
2023/07/28 08:52:26;;;;;;;;;;;19.00;96.40;;;;;;4983393;28;19934;-73
2023/07/28 08:54:52;;;;;;;;;;;19.00;96.40;;;;;;4984359;28;19934;-74
2023/07/28 08:57:20;;;;;;;;;;;19.00;96.40;;;;;;4980692;28;21471;-73
2023/07/28 08:59:48;;;;;;;;;;;19.00;96.30;;;;;;4980902;28;19929;-74
2023/07/28 09:02:15;;;;;;;;;;;19.10;96.20;;;;;;4983667;28;19976;-73
2023/07/28 09:04:42;;;;;;;;;;;19.10;96.10;;;;;;4983008;28;19973;-74
2023/07/28 09:07:09;;;;;;;;;;;19.10;96.00;;;;;;4983311;28;19953;-74
2023/07/28 09:09:37;;;;;;;;;;;19.10;95.90;;;;;;4982057;28;19934;-74
2023/07/28 09:12:04;;;;;;;;;;;19.20;95.90;;;;;;4981859;28;20645;-73
2023/07/28 09:14:31;;;;;;;;;;;19.20;95.90;;;;;;4980068;28;19937;-73
2023/07/28 09:17:06;;;;;;;;;;;19.20;95.90;;;;;;4983079;28;20391;-73
2023/07/28 09:19:32;;;;;;;;;;;19.20;95.90;;;;;;4983733;28;19936;-73
2023/07/28 09:22:00;;;;;;;;;;;19.30;95.90;;;;;;4982696;28;19937;-74
2023/07/28 09:24:31;;;;;;;;;;;19.30;95.80;;;;;;4982356;28;19941;-73
2023/07/28 09:26:59;;;;;;;;;;;19.40;95.80;;;;;;4982264;28;19945;-74
2023/07/28 09:29:27;;;;;;;;;;;19.40;95.80;;;;;;4983023;28;20701;-74
2023/07/28 09:31:54;;;;;;;;;;;19.40;95.70;;;;;;4976526;28;19929;-74
2023/07/28 09:34:25;;;;;;;;;;;19.40;95.70;;;;;;4983019;28;19929;-73
2023/07/28 09:36:53;;;;;;;;;;;19.50;95.70;;;;;;4981044;28;19969;-74
2023/07/28 09:39:20;;;;;;;;;;;19.50;95.60;;;;;;4980185;28;20386;-74
2023/07/28 09:41:47;;;;;;;;;;;19.60;95.60;;;;;;4982822;28;20073;-74
2023/07/28 09:44:15;;;;;;;;;;;19.60;95.50;;;;;;4982857;28;19937;-74
2023/07/28 09:46:50;;;;;;;;;;;19.60;95.40;;;;;;4984832;28;19996;-74
2023/07/28 09:49:20;;;;;;;;;;;19.60;95.30;;;;;;4982165;28;20021;-73
2023/07/28 09:51:49;;;;;;;;;;;19.70;95.20;;;;;;4980288;28;19929;-74
2023/07/28 09:54:19;;;;;;;;;;;19.70;95.20;;;;;;4985959;28;20020;-74
2023/07/28 09:56:47;;;;;;;;;;;19.70;95.10;;;;;;4982072;28;19932;-73
2023/07/28 09:59:17;;;;;;;;;;;19.70;95.00;;;;;;4981692;28;19977;-73
2023/07/28 10:01:46;;;;;;;;;;;19.80;95.00;;;;;;4984462;28;19929;-73
2023/07/28 10:04:14;;;;;;;;;;;19.80;94.90;;;;;;4981369;28;19930;-74
2023/07/28 10:06:42;;;;;;;;;;;19.80;94.80;;;;;;4984080;28;20435;-74
2023/07/28 10:09:11;;;;;;;;;;;19.80;94.80;;;;;;4986244;28;19961;-73
2023/07/28 10:11:37;;;;;;;;;;;19.80;94.70;;;;;;4982503;28;19926;-74
2023/07/28 10:14:04;;;;;;;;;;;19.90;94.70;;;;;;4986341;28;19934;-74
2023/07/28 10:16:32;;;;;;;;;;;19.80;94.70;;;;;;4986645;28;19940;-74
2023/07/28 10:19:00;;;;;;;;;;;19.90;94.70;;;;;;4985296;28;19930;-75
2023/07/28 10:21:28;;;;;;;;;;;19.90;94.60;;;;;;4987142;28;19941;-74
2023/07/28 10:23:55;;;;;;;;;;;19.90;94.50;;;;;;4983555;28;19941;-73
2023/07/28 10:26:32;;;;;;;;;;;19.90;94.50;;;;;;4981997;28;19930;-72
2023/07/28 10:29:08;;;;;;;;;;;19.90;94.50;;;;;;4983079;28;19937;-73
2023/07/28 10:31:35;;;;;;;;;;;20.00;94.50;;;;;;4982010;28;19934;-74
2023/07/28 10:34:04;;;;;;;;;;;20.00;94.40;;;;;;4982326;28;19993;-73
2023/07/28 10:36:34;;;;;;;;;;;20.00;94.30;;;;;;4978407;28;19933;-73
2023/07/28 10:39:02;;;;;;;;;;;20.00;94.30;;;;;;4983687;28;19925;-73
2023/07/28 10:41:28;;;;;;;;;;;20.10;94.30;;;;;;4982910;28;19962;-73
2023/07/28 10:43:55;;;;;;;;;;;20.10;94.20;;;;;;4980893;28;20424;-73
2023/07/28 10:46:22;;;;;;;;;;;20.10;94.10;;;;;;4978008;28;19926;-74
2023/07/28 10:48:50;;;;;;;;;;;20.10;94.10;;;;;;4981836;28;19929;-73
2023/07/28 10:51:25;;;;;;;;;;;20.10;94.00;;;;;;4979490;28;19930;-73
2023/07/28 10:53:52;;;;;;;;;;;20.10;94.10;;;;;;4981274;28;19934;-73
2023/07/28 10:56:19;;;;;;;;;;;20.10;94.00;;;;;;4980524;28;20032;-73
2023/07/28 10:58:46;;;;;;;;;;;20.10;94.00;;;;;;4979669;28;20121;-73
2023/07/28 11:01:13;;;;;;;;;;;20.10;93.90;;;;;;4981193;28;19937;-73
2023/07/28 11:03:40;;;;;;;;;;;20.10;93.90;;;;;;4981586;28;19930;-73
2023/07/28 11:06:07;;;;;;;;;;;20.10;93.90;;;;;;4979013;28;20020;-74
2023/07/28 11:08:36;;;;;;;;;;;20.20;94.00;;;;;;4977940;28;20024;-73
2023/07/28 11:11:03;;;;;;;;;;;20.20;93.90;;;;;;4983196;28;19937;-73
2023/07/28 11:13:30;;;;;;;;;;;20.20;93.80;;;;;;4978948;28;19940;-73
2023/07/28 11:15:58;;;;;;;;;;;20.20;93.80;;;;;;4980092;28;19929;-73
2023/07/28 11:18:26;;;;;;;;;;;20.20;93.80;;;;;;4980881;28;19977;-73
2023/07/28 11:20:52;;;;;;;;;;;20.30;93.80;;;;;;4981426;28;20028;-73
2023/07/28 11:23:19;;;;;;;;;;;20.30;94.10;;;;;;4981257;28;19937;-74
2023/07/28 11:25:47;;;;;;;;;;;20.30;93.70;;;;;;4979625;28;20691;-73
2023/07/28 11:28:14;;;;;;;;;;;20.30;93.60;;;;;;4981767;28;19930;-73
2023/07/28 11:30:42;;;;;;;;;;;20.40;93.50;;;;;;4976906;28;19930;-73
2023/07/28 11:33:10;;;;;;;;;;;20.40;93.50;;;;;;4978337;28;19926;-74
2023/07/28 11:35:37;;;;;;;;;;;20.40;93.40;;;;;;4973869;28;20008;-74
2023/07/28 11:38:03;;;;;;;;;;;20.40;93.30;;;;;;4979099;28;20666;-74
2023/07/28 11:40:30;;;;;;;;;;;20.50;93.30;;;;;;4977161;28;20016;-73
2023/07/28 11:42:59;;;;;;;;;;;20.50;93.30;;;;;;4982325;28;19942;-74
2023/07/28 11:45:25;;;;;;;;;;;20.50;93.20;;;;;;4978421;28;19937;-72
2023/07/28 11:47:55;;;;;;;;;;;20.50;93.20;;;;;;4980576;28;20407;-73
2023/07/28 11:50:25;;;;;;;;;;;20.50;93.20;;;;;;4980699;28;19934;-74
2023/07/28 11:52:52;;;;;;;;;;;20.50;93.10;;;;;;4980272;28;20338;-73
2023/07/28 11:55:19;;;;;;;;;;;20.60;93.10;;;;;;4983445;28;19929;-73
2023/07/28 11:57:46;;;;;;;;;;;20.60;93.10;;;;;;4978399;28;20312;-74
2023/07/28 12:00:16;;;;;;;;;;;20.60;93.00;;;;;;4983055;28;19930;-73
2023/07/28 12:02:43;;;;;;;;;;;20.60;93.10;;;;;;4979631;28;20390;-74
2023/07/28 12:05:12;;;;;;;;;;;20.60;93.20;;;;;;4986561;28;19930;-74
2023/07/28 12:07:40;;;;;;;;;;;20.70;93.20;;;;;;4983574;28;20387;-73
2023/07/28 12:10:09;;;;;;;;;;;20.70;93.30;;;;;;4980275;28;19937;-74
2023/07/28 12:12:43;;;;;;;;;;;20.70;93.20;;;;;;4983785;28;20016;-73
2023/07/28 12:15:21;;;;;;;;;;;20.70;93.20;;;;;;4980275;28;20574;-75
2023/07/28 12:18:02;;;;;;;;;;;20.70;93.20;;;;;;4983685;28;19976;-72
2023/07/28 12:20:33;;;;;;;;;;;20.70;93.20;;;;;;4983214;28;20387;-73
2023/07/28 12:23:00;;;;;;;;;;;20.70;93.20;;;;;;4986513;28;20261;-73
2023/07/28 12:25:26;;;;;;;;;;;20.70;93.30;;;;;;4987081;28;19934;-73
2023/07/28 12:27:53;;;;;;;;;;;20.70;93.60;;;;;;4987377;28;19973;-73
2023/07/28 12:30:21;;;;;;;;;;;20.70;93.90;;;;;;4984104;28;19934;-74
2023/07/28 12:32:48;;;;;;;;;;;20.70;94.00;;;;;;4981747;28;19941;-73
2023/07/28 12:35:14;;;;;;;;;;;20.70;94.00;;;;;;4987250;28;19929;-74
2023/07/28 12:37:41;;;;;;;;;;;20.70;94.20;;;;;;4979580;28;19953;-73
2023/07/28 12:40:10;;;;;;;;;;;20.70;94.10;;;;;;4987347;28;19984;-74
2023/07/28 12:42:36;;;;;;;;;;;20.70;94.10;;;;;;4982085;28;20486;-74
2023/07/28 12:45:06;;;;;;;;;;;20.70;94.00;;;;;;4986628;28;19940;-73
2023/07/28 12:47:34;;;;;;;;;;;20.70;94.00;;;;;;4981168;28;19936;-73
2023/07/28 12:50:00;;;;;;;;;;;20.70;94.10;;;;;;4987757;28;19933;-73
2023/07/28 12:52:27;;;;;;;;;;;20.70;94.10;;;;;;4985020;28;19929;-73
2023/07/28 12:54:54;;;;;;;;;;;20.70;94.10;;;;;;4981439;28;19941;-73
2023/07/28 12:57:21;;;;;;;;;;;20.70;94.00;;;;;;4982133;28;19936;-74
2023/07/28 12:59:47;;;;;;;;;;;20.70;94.10;;;;;;4982562;28;19937;-73
2023/07/28 13:02:14;;;;;;;;;;;20.70;94.20;;;;;;4981884;28;19930;-73
2023/07/28 13:04:42;;;;;;;;;;;20.70;94.30;;;;;;4982111;28;19930;-73
2023/07/28 13:07:08;;;;;;;;;;;20.70;94.40;;;;;;4981237;28;19933;-74
2023/07/28 13:09:35;;;;;;;;;;;20.70;94.40;;;;;;4986103;28;19926;-76
2023/07/28 13:12:02;;;;;;;;;;;20.70;94.50;;;;;;4979457;28;19938;-73
2023/07/28 13:14:29;;;;;;;;;;;20.70;94.50;;;;;;4983319;28;19933;-74
2023/07/28 13:16:55;;;;;;;;;;;20.70;94.50;;;;;;4983446;28;19930;-74
2023/07/28 13:19:22;;;;;;;;;;;20.70;94.60;;;;;;4981476;28;20025;-73
2023/07/28 13:21:50;;;;;;;;;;;20.70;94.60;;;;;;4981484;28;19956;-73
2023/07/28 13:24:17;;;;;;;;;;;20.70;94.60;;;;;;4983245;28;19930;-73
2023/07/28 13:26:43;;;;;;;;;;;20.70;94.60;;;;;;4983685;28;19945;-73
2023/07/28 13:29:10;;;;;;;;;;;20.70;94.70;;;;;;4982360;28;19937;-73
2023/07/28 13:31:36;;;;;;;;;;;20.70;94.70;;;;;;4981778;28;20355;-73
2023/07/28 13:34:03;;;;;;;;;;;20.70;94.80;;;;;;4984844;28;20375;-73
2023/07/28 13:36:29;;;;;;;;;;;20.60;94.80;;;;;;4981906;28;19937;-73
2023/07/28 13:38:57;;;;;;;;;;;20.60;94.90;;;;;;4981704;28;19930;-73
2023/07/28 13:41:24;;;;;;;;;;;20.60;94.90;;;;;;4984057;28;19930;-73
2023/07/28 13:43:50;;;;;;;;;;;20.60;94.90;;;;;;4984816;28;19930;-74
2023/07/28 13:46:17;;;;;;;;;;;20.60;94.90;;;;;;4984639;28;19937;-73
2023/07/28 13:48:43;;;;;;;;;;;20.60;95.00;;;;;;4977706;28;20594;-74
2023/07/28 13:51:10;;;;;;;;;;;20.60;94.90;;;;;;4984106;28;21119;-73
2023/07/28 13:53:36;;;;;;;;;;;20.60;94.90;;;;;;4975179;28;20510;-74
2023/07/28 13:56:05;;;;;;;;;;;20.60;94.80;;;;;;4986147;28;19930;-74
2023/07/28 13:58:31;;;;;;;;;;;20.60;94.70;;;;;;4983805;28;19929;-72
2023/07/28 14:00:58;;;;;;;;;;;20.60;94.70;;;;;;4986012;28;20403;-74
2023/07/28 14:03:25;;;;;;;;;;;20.60;94.70;;;;;;4981843;28;20288;-73
2023/07/28 14:05:51;;;;;;;;;;;20.50;94.80;;;;;;4982406;28;19929;-74
2023/07/28 14:08:18;;;;;;;;;;;20.60;94.90;;;;;;4989538;28;19930;-73
2023/07/28 14:10:44;;;;;;;;;;;20.50;94.90;;;;;;4985489;28;19930;-74
2023/07/28 14:13:12;;;;;;;;;;;20.50;95.00;;;;;;4987012;28;19930;-74
2023/07/28 14:15:39;;;;;;;;;;;20.60;95.10;;;;;;4985476;28;20021;-73